Time;durP1;ratioP1;P1;durP2;ratioP2;P2;SDS_P1;SDS_P2;PMS_P1;PMS_P2;Temp;Humidity;BMP_temperature;BMP_pressure;BME280_temperature;BME280_humidity;BME280_pressure;Samples;Min_cycle;Max_cycle;Signal;HPM_P1;HPM_P2
2022/04/08 00:01:15;;;;;;;1.40;0.80;;;;;;;;;;4509827;28;20120;-63
2022/04/08 00:03:25;;;;;;;1.57;0.60;;;;;;;;;;4493791;28;20592;-63
2022/04/08 00:05:36;;;;;;;1.63;0.80;;;;;;;;;;4512915;28;20276;-63
2022/04/08 00:07:46;;;;;;;0.93;0.60;;;;;;;;;;4511370;28;20037;-63
2022/04/08 00:09:57;;;;;;;1.50;0.60;;;;;;;;;;4510809;28;20065;-63
2022/04/08 00:12:08;;;;;;;1.33;0.53;;;;;;;;;;4511613;28;32958;-63
2022/04/08 00:14:18;;;;;;;2.92;0.73;;;;;;;;;;4502543;28;20132;-63
2022/04/08 00:16:29;;;;;;;1.73;0.57;;;;;;;;;;4511436;28;20030;-63
2022/04/08 00:18:39;;;;;;;1.70;0.60;;;;;;;;;;4510758;28;20045;-64
2022/04/08 00:20:50;;;;;;;1.60;0.60;;;;;;;;;;4502817;28;20042;-63
2022/04/08 00:23:03;;;;;;;2.10;0.70;;;;;;;;;;4514776;28;20056;-63
2022/04/08 00:25:13;;;;;;;1.50;0.70;;;;;;;;;;4511777;28;20030;-63
2022/04/08 00:27:24;;;;;;;1.13;0.57;;;;;;;;;;4511342;28;20029;-63
2022/04/08 00:29:34;;;;;;;1.80;0.60;;;;;;;;;;4512312;28;20473;-63
2022/04/08 00:31:44;;;;;;;1.20;0.60;;;;;;;;;;4502310;28;20030;-63
2022/04/08 00:33:55;;;;;;;1.40;0.60;;;;;;;;;;4510932;28;20599;-63
2022/04/08 00:36:05;;;;;;;1.93;0.80;;;;;;;;;;4511346;28;20038;-63
2022/04/08 00:38:16;;;;;;;1.50;0.60;;;;;;;;;;4511038;28;20042;-63
2022/04/08 00:40:26;;;;;;;1.63;0.60;;;;;;;;;;4512054;28;20077;-63
2022/04/08 00:42:38;;;;;;;1.60;0.60;;;;;;;;;;4492778;28;20073;-63
2022/04/08 00:44:48;;;;;;;2.17;0.80;;;;;;;;;;4510502;28;20048;-64
2022/04/08 00:46:58;;;;;;;1.87;0.50;;;;;;;;;;4511169;28;41684;-63
2022/04/08 00:49:09;;;;;;;2.37;0.90;;;;;;;;;;4513399;28;20037;-63
2022/04/08 00:51:21;;;;;;;1.50;0.60;;;;;;;;;;4512019;28;21224;-62
2022/04/08 00:53:32;;;;;;;;;;;;;;;;;;4496413;28;20102;-63
2022/04/08 00:55:43;;;;;;;2.83;0.82;;;;;;;;;;4511251;28;19924;-63
2022/04/08 00:57:53;;;;;;;1.30;0.50;;;;;;;;;;4510278;28;20022;-63
2022/04/08 01:00:08;;;;;;;1.93;0.60;;;;;;;;;;4509795;28;21309;-63
2022/04/08 01:02:18;;;;;;;2.20;0.70;;;;;;;;;;4511307;28;20046;-63
2022/04/08 01:04:29;;;;;;;2.00;0.57;;;;;;;;;;4502099;28;25014;-62
2022/04/08 01:06:41;;;;;;;1.83;0.60;;;;;;;;;;4512331;28;20071;-62
2022/04/08 01:08:53;;;;;;;1.52;0.65;;;;;;;;;;4501024;28;20536;-62
2022/04/08 01:11:04;;;;;;;1.90;0.80;;;;;;;;;;4507897;28;20090;-62
2022/04/08 01:13:14;;;;;;;1.97;0.70;;;;;;;;;;4511185;28;20029;-62
2022/04/08 01:15:25;;;;;;;1.67;0.77;;;;;;;;;;4510809;28;20034;-63
2022/04/08 01:17:36;;;;;;;1.50;0.57;;;;;;;;;;4491810;28;20042;-62
2022/04/08 01:19:46;;;;;;;2.23;0.70;;;;;;;;;;4510920;28;20041;-62
2022/04/08 01:21:57;;;;;;;2.27;0.80;;;;;;;;;;4483151;28;20039;-62
2022/04/08 01:24:11;;;;;;;1.73;0.70;;;;;;;;;;4492240;28;20026;-62
2022/04/08 01:26:22;;;;;;;2.47;0.80;;;;;;;;;;4500386;28;20277;-62
2022/04/08 01:28:33;;;;;;;1.97;0.60;;;;;;;;;;4510905;28;20073;-62
2022/04/08 01:30:43;;;;;;;0.98;0.50;;;;;;;;;;4512017;28;20037;-63
2022/04/08 01:32:53;;;;;;;1.70;0.70;;;;;;;;;;4512055;28;20034;-63
2022/04/08 01:35:04;;;;;;;2.17;0.87;;;;;;;;;;4507852;28;32799;-62
2022/04/08 01:37:16;;;;;;;2.35;0.70;;;;;;;;;;4511030;28;20580;-64
2022/04/08 01:39:26;;;;;;;2.47;0.75;;;;;;;;;;4510234;28;20033;-62
2022/04/08 01:41:36;;;;;;;2.53;0.80;;;;;;;;;;4511690;28;20393;-62
2022/04/08 01:43:47;;;;;;;1.20;0.47;;;;;;;;;;4510098;28;20080;-62
2022/04/08 01:45:58;;;;;;;1.70;0.60;;;;;;;;;;4510405;28;20117;-62
2022/04/08 01:48:09;;;;;;;1.00;0.53;;;;;;;;;;4510835;28;25796;-62
2022/04/08 01:50:21;;;;;;;1.70;0.60;;;;;;;;;;4509277;28;20056;-62
2022/04/08 01:52:32;;;;;;;1.77;0.80;;;;;;;;;;4510386;28;20120;-62
2022/04/08 01:54:43;;;;;;;2.53;0.70;;;;;;;;;;4497567;28;20099;-62
2022/04/08 01:56:53;;;;;;;2.87;0.80;;;;;;;;;;4510103;28;20030;-62
2022/04/08 01:59:04;;;;;;;1.77;0.53;;;;;;;;;;4510798;28;20683;-62
2022/04/08 02:01:14;;;;;;;1.10;0.50;;;;;;;;;;4509684;28;22371;-62
2022/04/08 02:03:25;;;;;;;1.60;0.60;;;;;;;;;;4510154;28;20045;-62
2022/04/08 02:05:36;;;;;;;1.52;0.63;;;;;;;;;;4510962;28;20045;-62
2022/04/08 02:07:46;;;;;;;2.80;0.63;;;;;;;;;;4511683;28;26923;-62
2022/04/08 02:09:56;;;;;;;1.23;0.53;;;;;;;;;;4495814;28;20549;-62
2022/04/08 02:12:07;;;;;;;0.73;0.40;;;;;;;;;;4509554;28;23865;-62
2022/04/08 02:14:17;;;;;;;1.63;0.73;;;;;;;;;;4511349;28;20033;-62
2022/04/08 02:16:28;;;;;;;1.87;0.63;;;;;;;;;;4490807;28;20041;-62
2022/04/08 02:18:39;;;;;;;1.17;0.40;;;;;;;;;;4491071;28;20157;-62
2022/04/08 02:20:51;;;;;;;1.20;0.60;;;;;;;;;;4510390;28;21020;-62
2022/04/08 02:23:02;;;;;;;0.98;0.55;;;;;;;;;;4508817;28;20663;-62
2022/04/08 02:25:13;;;;;;;1.40;0.45;;;;;;;;;;4509024;28;20021;-62
2022/04/08 02:27:26;;;;;;;1.73;0.70;;;;;;;;;;4500208;28;20034;-63
2022/04/08 02:29:36;;;;;;;0.95;0.68;;;;;;;;;;4491224;28;20038;-62
2022/04/08 02:31:47;;;;;;;1.23;0.43;;;;;;;;;;4494735;28;20070;-62
2022/04/08 02:33:57;;;;;;;0.43;0.33;;;;;;;;;;4510358;28;20114;-62
2022/04/08 02:36:08;;;;;;;0.90;0.40;;;;;;;;;;4501587;28;20041;-61
2022/04/08 02:38:18;;;;;;;1.20;0.47;;;;;;;;;;4509623;28;34154;-62
2022/04/08 02:40:29;;;;;;;0.70;0.40;;;;;;;;;;4509378;28;20034;-62
2022/04/08 02:42:39;;;;;;;1.67;0.50;;;;;;;;;;4511570;28;20148;-61
2022/04/08 02:44:49;;;;;;;1.57;0.50;;;;;;;;;;4509213;28;20116;-62
2022/04/08 02:47:00;;;;;;;0.83;0.43;;;;;;;;;;4510680;28;20119;-62
2022/04/08 02:49:10;;;;;;;0.83;0.40;;;;;;;;;;4496303;28;20034;-62
2022/04/08 02:51:21;;;;;;;0.53;0.30;;;;;;;;;;4510419;28;20068;-62
2022/04/08 02:53:31;;;;;;;0.97;0.33;;;;;;;;;;4510856;28;20482;-62
2022/04/08 02:55:42;;;;;;;0.73;0.40;;;;;;;;;;4510036;28;20038;-62
2022/04/08 02:57:52;;;;;;;1.37;0.40;;;;;;;;;;4509433;28;20445;-62
2022/04/08 03:00:03;;;;;;;0.30;0.30;;;;;;;;;;4509516;28;20061;-62
2022/04/08 03:02:14;;;;;;;0.55;0.40;;;;;;;;;;4509089;28;20120;-62
2022/04/08 03:04:25;;;;;;;0.70;0.27;;;;;;;;;;4511275;28;20042;-62
2022/04/08 03:06:36;;;;;;;;;;;;;;;;;;4511395;28;20042;-62
2022/04/08 03:08:46;;;;;;;0.95;0.40;;;;;;;;;;4491707;28;19917;-63
2022/04/08 03:10:57;;;;;;;1.90;0.53;;;;;;;;;;4510611;28;20041;-62
2022/04/08 03:13:07;;;;;;;0.50;0.40;;;;;;;;;;4509557;28;20048;-62
2022/04/08 03:15:17;;;;;;;1.07;0.40;;;;;;;;;;4509559;28;20034;-62
2022/04/08 03:17:28;;;;;;;0.60;0.40;;;;;;;;;;4509126;28;20037;-62
2022/04/08 03:19:38;;;;;;;1.03;0.50;;;;;;;;;;4510586;28;20403;-62
2022/04/08 03:21:49;;;;;;;1.23;0.60;;;;;;;;;;4508599;28;20037;-62
2022/04/08 03:23:59;;;;;;;1.10;0.60;;;;;;;;;;4511460;28;20030;-64
2022/04/08 03:26:10;;;;;;;1.03;0.47;;;;;;;;;;4509664;28;20034;-62
2022/04/08 03:28:20;;;;;;;1.77;0.70;;;;;;;;;;4509850;28;20041;-62
2022/04/08 03:30:32;;;;;;;0.43;0.30;;;;;;;;;;4490110;28;43273;-62
2022/04/08 03:32:43;;;;;;;0.70;0.47;;;;;;;;;;4509693;28;20486;-63
2022/04/08 03:34:57;;;;;;;1.43;0.53;;;;;;;;;;4507046;28;20042;-62
2022/04/08 03:37:08;;;;;;;1.02;0.43;;;;;;;;;;4495191;28;20050;-62
2022/04/08 03:39:20;;;;;;;2.23;0.73;;;;;;;;;;4512360;28;20061;-64
2022/04/08 03:41:30;;;;;;;0.68;0.40;;;;;;;;;;4494198;28;20045;-62
2022/04/08 03:43:40;;;;;;;0.87;0.30;;;;;;;;;;4510166;28;40506;-63
2022/04/08 03:45:51;;;;;;;1.57;0.60;;;;;;;;;;4510806;28;20034;-62
2022/04/08 03:48:02;;;;;;;2.00;0.53;;;;;;;;;;4493385;28;20046;-63
2022/04/08 03:50:12;;;;;;;0.65;0.40;;;;;;;;;;4513372;28;20050;-62
2022/04/08 03:52:23;;;;;;;0.60;0.40;;;;;;;;;;4510589;28;20076;-62
2022/04/08 03:54:33;;;;;;;1.03;0.40;;;;;;;;;;4510484;28;20045;-62
2022/04/08 03:56:44;;;;;;;0.93;0.30;;;;;;;;;;4513553;28;20026;-62
2022/04/08 03:58:54;;;;;;;1.17;0.50;;;;;;;;;;4503894;28;20056;-62
2022/04/08 04:01:05;;;;;;;1.10;0.50;;;;;;;;;;4492981;28;20034;-62
2022/04/08 04:03:15;;;;;;;0.87;0.40;;;;;;;;;;4512379;28;20694;-63
2022/04/08 04:05:25;;;;;;;1.53;0.50;;;;;;;;;;4514673;28;20045;-62
2022/04/08 04:07:36;;;;;;;0.80;0.40;;;;;;;;;;4511371;28;20022;-62
2022/04/08 04:09:46;;;;;;;0.77;0.37;;;;;;;;;;4512825;28;20076;-63
2022/04/08 04:11:57;;;;;;;0.60;0.40;;;;;;;;;;4493198;28;20070;-63
2022/04/08 04:14:07;;;;;;;1.90;0.53;;;;;;;;;;4512774;28;20034;-63
2022/04/08 04:16:18;;;;;;;0.90;0.60;;;;;;;;;;4512565;28;20037;-63
2022/04/08 04:18:28;;;;;;;1.90;0.70;;;;;;;;;;4511527;28;20080;-64
2022/04/08 04:20:39;;;;;;;0.73;0.40;;;;;;;;;;4510603;28;20084;-63
2022/04/08 04:22:50;;;;;;;0.87;0.60;;;;;;;;;;4513482;28;25293;-63
2022/04/08 04:25:01;;;;;;;1.50;0.52;;;;;;;;;;4509972;28;20193;-63
2022/04/08 04:27:12;;;;;;;1.83;0.53;;;;;;;;;;4493990;28;20206;-63
2022/04/08 04:29:22;;;;;;;1.20;0.60;;;;;;;;;;4509208;28;20101;-63
2022/04/08 04:31:32;;;;;;;2.03;0.70;;;;;;;;;;4492537;28;20290;-62
2022/04/08 04:33:43;;;;;;;1.53;0.70;;;;;;;;;;4511700;28;22209;-63
2022/04/08 04:35:54;;;;;;;2.03;0.73;;;;;;;;;;4508953;28;31740;-63
2022/04/08 04:38:05;;;;;;;2.77;1.00;;;;;;;;;;4511793;28;20141;-62
2022/04/08 04:40:15;;;;;;;2.72;1.00;;;;;;;;;;4502679;28;20030;-63
2022/04/08 04:42:27;;;;;;;2.00;1.00;;;;;;;;;;4510151;28;20490;-63
2022/04/08 04:44:38;;;;;;;2.25;1.00;;;;;;;;;;4511907;28;20593;-62
2022/04/08 04:46:48;;;;;;;1.37;0.70;;;;;;;;;;4479788;28;20047;-62
2022/04/08 04:48:59;;;;;;;1.57;0.87;;;;;;;;;;4512756;28;25682;-62
2022/04/08 04:51:11;;;;;;;2.47;0.80;;;;;;;;;;4513577;28;20046;-63
2022/04/08 04:53:22;;;;;;;1.95;0.50;;;;;;;;;;4512078;28;20037;-63
2022/04/08 04:55:33;;;;;;;1.70;0.70;;;;;;;;;;4513596;28;20070;-63
2022/04/08 04:57:43;;;;;;;1.47;0.73;;;;;;;;;;4511640;28;20044;-62
2022/04/08 04:59:54;;;;;;;1.37;0.70;;;;;;;;;;4509195;28;20164;-62
2022/04/08 05:02:04;;;;;;;1.97;0.73;;;;;;;;;;4511345;28;20060;-63
2022/04/08 05:04:14;;;;;;;2.27;0.80;;;;;;;;;;4502164;28;20536;-63
2022/04/08 05:06:25;;;;;;;2.57;0.90;;;;;;;;;;4501191;28;31992;-62
2022/04/08 05:08:35;;;;;;;1.87;0.80;;;;;;;;;;4507223;28;23141;-63
2022/04/08 05:10:46;;;;;;;2.33;0.90;;;;;;;;;;4511035;28;20045;-62
2022/04/08 05:12:59;;;;;;;2.47;1.00;;;;;;;;;;4509905;28;20545;-62
2022/04/08 05:15:11;;;;;;;2.55;1.00;;;;;;;;;;4511466;28;20063;-63
2022/04/08 05:17:22;;;;;;;3.08;1.15;;;;;;;;;;4490126;28;20042;-63
2022/04/08 05:19:32;;;;;;;3.13;1.20;;;;;;;;;;4499780;28;20026;-63
2022/04/08 05:21:43;;;;;;;2.73;0.90;;;;;;;;;;4510312;28;20089;-63
2022/04/08 05:23:53;;;;;;;2.23;1.00;;;;;;;;;;4508972;28;38536;-62
2022/04/08 05:26:03;;;;;;;3.20;1.13;;;;;;;;;;4510746;28;20040;-63
2022/04/08 05:28:15;;;;;;;2.17;0.80;;;;;;;;;;4508529;28;30716;-63
2022/04/08 05:30:26;;;;;;;3.72;0.90;;;;;;;;;;4511215;28;20121;-62
2022/04/08 05:32:36;;;;;;;2.33;0.90;;;;;;;;;;4510895;28;20530;-63
2022/04/08 05:34:47;;;;;;;3.47;1.10;;;;;;;;;;4510121;28;20036;-62
2022/04/08 05:36:57;;;;;;;3.80;1.00;;;;;;;;;;4509773;28;21787;-63
2022/04/08 05:39:07;;;;;;;2.57;0.83;;;;;;;;;;4509848;28;20070;-62
2022/04/08 05:41:18;;;;;;;3.60;1.07;;;;;;;;;;4508853;28;20402;-63
2022/04/08 05:43:29;;;;;;;3.73;1.10;;;;;;;;;;4509787;28;20033;-62
2022/04/08 05:45:39;;;;;;;3.38;1.10;;;;;;;;;;4510169;28;20025;-62
2022/04/08 05:47:50;;;;;;;3.43;1.10;;;;;;;;;;4508973;28;20410;-63
2022/04/08 05:50:01;;;;;;;3.73;1.17;;;;;;;;;;4511390;28;20121;-63
2022/04/08 05:52:12;;;;;;;3.87;1.50;;;;;;;;;;4471955;28;20137;-63
2022/04/08 05:54:22;;;;;;;3.50;1.20;;;;;;;;;;4511657;28;20328;-63
2022/04/08 05:56:32;;;;;;;3.03;1.00;;;;;;;;;;4510606;28;20175;-63
2022/04/08 05:58:43;;;;;;;4.27;1.40;;;;;;;;;;4511025;28;20033;-62
2022/04/08 06:00:53;;;;;;;5.33;1.33;;;;;;;;;;4492470;28;20042;-63
2022/04/08 06:03:04;;;;;;;4.37;1.20;;;;;;;;;;4510471;28;27455;-63
2022/04/08 06:05:18;;;;;;;4.53;1.60;;;;;;;;;;4490998;28;20038;-63
2022/04/08 06:07:28;;;;;;;3.30;1.20;;;;;;;;;;4510036;28;20069;-63
2022/04/08 06:09:39;;;;;;;3.83;1.30;;;;;;;;;;4492929;28;20549;-63
2022/04/08 06:11:49;;;;;;;4.77;1.70;;;;;;;;;;4492363;28;20842;-64
2022/04/08 06:14:00;;;;;;;3.00;1.10;;;;;;;;;;4509250;28;20034;-63
2022/04/08 06:16:10;;;;;;;2.80;1.30;;;;;;;;;;4507477;28;20497;-63
2022/04/08 06:18:21;;;;;;;2.70;1.07;;;;;;;;;;4490815;28;20038;-64
2022/04/08 06:20:31;;;;;;;2.57;1.00;;;;;;;;;;4490994;28;20132;-63
2022/04/08 06:22:42;;;;;;;3.23;1.03;;;;;;;;;;4496664;28;20042;-63
2022/04/08 06:24:52;;;;;;;3.33;1.00;;;;;;;;;;4511088;28;20033;-63
2022/04/08 06:27:03;;;;;;;4.90;1.33;;;;;;;;;;4492038;28;20811;-63
2022/04/08 06:29:13;;;;;;;3.63;1.60;;;;;;;;;;4507806;28;20053;-63
2022/04/08 06:31:28;;;;;;;4.30;1.37;;;;;;;;;;4509693;28;20046;-63
2022/04/08 06:33:39;;;;;;;3.70;1.30;;;;;;;;;;4504381;28;20071;-64
2022/04/08 06:35:49;;;;;;;4.00;1.30;;;;;;;;;;4509250;28;20036;-63
2022/04/08 06:38:01;;;;;;;3.27;1.17;;;;;;;;;;4501230;28;20041;-63
2022/04/08 06:40:12;;;;;;;3.65;1.25;;;;;;;;;;4510878;28;20322;-64
2022/04/08 06:42:23;;;;;;;2.60;1.10;;;;;;;;;;4509905;28;20017;-63
2022/04/08 06:44:35;;;;;;;4.28;1.10;;;;;;;;;;4510526;28;20030;-63
2022/04/08 06:46:45;;;;;;;;;;;;;;;;;;4491679;28;20149;-63
2022/04/08 06:48:56;;;;;;;3.25;1.30;;;;;;;;;;4510138;28;19991;-63
2022/04/08 06:51:07;;;;;;;2.35;0.90;;;;;;;;;;4507853;28;20042;-63
2022/04/08 06:53:17;;;;;;;3.17;1.13;;;;;;;;;;4507984;28;20030;-63
2022/04/08 06:55:29;;;;;;;4.93;1.57;;;;;;;;;;4509475;28;20034;-63
2022/04/08 06:57:41;;;;;;;2.95;1.17;;;;;;;;;;4507990;28;20034;-63
2022/04/08 06:59:51;;;;;;;2.90;1.10;;;;;;;;;;4509424;28;20045;-63
2022/04/08 07:02:03;;;;;;;5.13;1.30;;;;;;;;;;4508922;28;20501;-64
2022/04/08 07:04:13;;;;;;;4.45;1.50;;;;;;;;;;4490713;28;21317;-63
2022/04/08 07:06:23;;;;;;;4.90;1.47;;;;;;;;;;4509751;28;20025;-63
2022/04/08 07:08:34;;;;;;;2.87;0.93;;;;;;;;;;4509454;28;20125;-62
2022/04/08 07:10:44;;;;;;;3.80;1.43;;;;;;;;;;4510253;28;20049;-63
2022/04/08 07:12:55;;;;;;;5.07;1.20;;;;;;;;;;4510722;28;20105;-63
2022/04/08 07:15:06;;;;;;;3.17;1.13;;;;;;;;;;4514362;28;20120;-64
2022/04/08 07:17:16;;;;;;;5.70;1.50;;;;;;;;;;4491193;28;20725;-63
2022/04/08 07:19:27;;;;;;;4.23;1.37;;;;;;;;;;4492985;28;31456;-63
2022/04/08 07:21:37;;;;;;;3.40;1.30;;;;;;;;;;4501110;28;20038;-63
2022/04/08 07:23:48;;;;;;;3.87;1.60;;;;;;;;;;4509812;28;20063;-63
2022/04/08 07:25:59;;;;;;;4.20;1.17;;;;;;;;;;4510784;28;20077;-63
2022/04/08 07:28:10;;;;;;;3.40;1.20;;;;;;;;;;4509497;28;20121;-65
2022/04/08 07:30:22;;;;;;;3.13;1.17;;;;;;;;;;4501455;28;20152;-63
2022/04/08 07:32:32;;;;;;;4.15;1.20;;;;;;;;;;4502297;28;20029;-64
2022/04/08 07:34:43;;;;;;;2.43;1.03;;;;;;;;;;4510463;28;38466;-65
2022/04/08 07:36:53;;;;;;;4.23;1.37;;;;;;;;;;4512638;28;20101;-65
2022/04/08 07:39:04;;;;;;;3.23;1.20;;;;;;;;;;4512306;28;20139;-65
2022/04/08 07:41:15;;;;;;;2.83;1.10;;;;;;;;;;4511924;28;20348;-65
2022/04/08 07:43:25;;;;;;;3.40;1.27;;;;;;;;;;4511713;28;20085;-65
2022/04/08 07:45:36;;;;;;;3.50;1.17;;;;;;;;;;4512798;28;20034;-65
2022/04/08 07:47:46;;;;;;;4.83;1.47;;;;;;;;;;4510784;28;20433;-65
2022/04/08 07:50:00;;;;;;;3.27;1.30;;;;;;;;;;4512263;28;20132;-65
2022/04/08 07:52:10;;;;;;;5.18;1.40;;;;;;;;;;4511691;28;21407;-65
2022/04/08 07:54:21;;;;;;;3.77;1.07;;;;;;;;;;4510195;28;35022;-65
2022/04/08 07:56:35;;;;;;;4.73;1.50;;;;;;;;;;4512419;28;20037;-65
2022/04/08 07:58:47;;;;;;;4.28;1.20;;;;;;;;;;4512883;28;21080;-65
2022/04/08 08:00:58;;;;;;;2.88;1.00;;;;;;;;;;4510436;28;20089;-65
2022/04/08 08:03:08;;;;;;;3.40;1.23;;;;;;;;;;4512120;28;20197;-66
2022/04/08 08:05:22;;;;;;;4.00;1.40;;;;;;;;;;4512417;28;20060;-64
2022/04/08 08:07:54;;;;;;;2.45;1.00;;;;;;;;;;4511430;28;20701;-66
2022/04/08 08:10:04;;;;;;;4.25;1.50;;;;;;;;;;4499756;28;20047;-65
2022/04/08 08:12:15;;;;;;;2.10;1.17;;;;;;;;;;4510100;28;20497;-66
2022/04/08 08:14:25;;;;;;;3.80;1.27;;;;;;;;;;4512219;28;23839;-65
2022/04/08 08:16:36;;;;;;;1.87;1.00;;;;;;;;;;4510323;28;20129;-65
2022/04/08 08:18:48;;;;;;;2.93;1.30;;;;;;;;;;4510795;28;20025;-65
2022/04/08 08:20:58;;;;;;;2.03;1.00;;;;;;;;;;4491331;28;20034;-65
2022/04/08 08:23:09;;;;;;;3.20;1.27;;;;;;;;;;4509422;28;20029;-65
2022/04/08 08:25:19;;;;;;;3.33;1.20;;;;;;;;;;4491833;28;20045;-63
2022/04/08 08:27:40;;;;;;;2.37;1.07;;;;;;;;;;4513360;28;20044;-63
2022/04/08 08:29:51;;;;;;;3.42;1.10;;;;;;;;;;4510957;28;20034;-62
2022/04/08 08:32:01;;;;;;;2.53;1.20;;;;;;;;;;4497049;28;20030;-63
2022/04/08 08:34:12;;;;;;;2.60;1.10;;;;;;;;;;4511934;28;30034;-63
2022/04/08 08:36:22;;;;;;;3.47;1.57;;;;;;;;;;4510219;28;20030;-63
2022/04/08 08:38:33;;;;;;;3.80;1.43;;;;;;;;;;4493067;28;20038;-63
2022/04/08 08:40:48;;;;;;;3.43;1.30;;;;;;;;;;4511836;28;20193;-62
2022/04/08 08:43:00;;;;;;;4.90;1.20;;;;;;;;;;4513079;28;20030;-63
2022/04/08 08:45:12;;;;;;;3.20;1.02;;;;;;;;;;4511473;28;20042;-63
2022/04/08 08:47:25;;;;;;;2.25;1.05;;;;;;;;;;4511320;28;20042;-62
2022/04/08 08:49:37;;;;;;;2.20;0.93;;;;;;;;;;4512109;28;20040;-62
2022/04/08 08:51:52;;;;;;;3.03;0.90;;;;;;;;;;4509961;28;20038;-63
2022/04/08 08:54:02;;;;;;;4.18;1.13;;;;;;;;;;4469198;28;20126;-63
2022/04/08 08:56:14;;;;;;;2.27;0.90;;;;;;;;;;4480883;28;20113;-64
2022/04/08 08:58:25;;;;;;;2.53;1.10;;;;;;;;;;4497814;28;21181;-64
2022/04/08 09:00:36;;;;;;;3.33;1.30;;;;;;;;;;4511352;28;20025;-65
2022/04/08 09:02:50;;;;;;;3.35;1.00;;;;;;;;;;4514104;28;20017;-62
2022/04/08 09:05:12;;;;;;;2.38;1.02;;;;;;;;;;4510470;28;20134;-63
2022/04/08 09:07:29;;;;;;;;;;;;;;;;;;4511145;28;20801;-62
2022/04/08 09:09:39;;;;;;;3.28;1.33;;;;;;;;;;4510595;28;19921;-63
2022/04/08 09:11:50;;;;;;;2.00;0.90;;;;;;;;;;4511295;28;20041;-62
2022/04/08 09:14:04;;;;;;;2.23;1.10;;;;;;;;;;4490796;28;26974;-62
2022/04/08 09:16:24;;;;;;;3.08;1.00;;;;;;;;;;4483726;28;20148;-63
2022/04/08 09:18:37;;;;;;;2.00;1.00;;;;;;;;;;4511418;28;20105;-63
2022/04/08 09:20:49;;;;;;;2.63;1.05;;;;;;;;;;4511844;28;20038;-63
2022/04/08 09:23:00;;;;;;;;;;;;;;;;;;4511036;28;20068;-62
2022/04/08 09:25:12;;;;;;;2.95;1.02;;;;;;;;;;4493418;28;20027;-63
2022/04/08 09:27:32;;;;;;;2.58;0.95;;;;;;;;;;4511644;28;20038;-63
2022/04/08 09:29:44;;;;;;;2.47;0.85;;;;;;;;;;4510153;28;21572;-63
2022/04/08 09:31:56;;;;;;;2.08;1.00;;;;;;;;;;4510181;28;20115;-63
2022/04/08 09:34:13;;;;;;;3.03;1.20;;;;;;;;;;4490166;28;20597;-63
2022/04/08 09:36:30;;;;;;;4.05;1.20;;;;;;;;;;4510519;28;20033;-63
2022/04/08 09:38:47;;;;;;;2.65;1.02;;;;;;;;;;4491022;28;20042;-63
2022/04/08 09:41:10;;;;;;;3.03;0.80;;;;;;;;;;4483211;28;20035;-62
2022/04/08 09:43:30;;;;;;;4.35;1.15;;;;;;;;;;4511569;28;20034;-63
2022/04/08 09:45:40;;;;;;;4.25;1.40;;;;;;;;;;4510076;28;20083;-63
2022/04/08 09:47:51;;;;;;;3.47;2.07;;;;;;;;;;4493737;28;20029;-63
2022/04/08 09:50:01;;;;;;;3.90;1.53;;;;;;;;;;4497346;28;20092;-63
2022/04/08 09:52:15;;;;;;;4.33;1.40;;;;;;;;;;4494541;28;20066;-62
2022/04/08 09:54:28;;;;;;;2.30;1.00;;;;;;;;;;4511100;28;20041;-62
2022/04/08 09:56:38;;;;;;;3.90;1.20;;;;;;;;;;4500157;28;20038;-62
2022/04/08 09:58:55;;;;;;;3.00;1.20;;;;;;;;;;4510104;28;20470;-62
2022/04/08 10:01:05;;;;;;;2.25;1.10;;;;;;;;;;4511992;28;20042;-62
2022/04/08 10:03:16;;;;;;;2.70;1.07;;;;;;;;;;4493145;28;20030;-63
2022/04/08 10:05:27;;;;;;;2.57;1.07;;;;;;;;;;4501414;28;20192;-62
2022/04/08 10:07:39;;;;;;;1.70;1.10;;;;;;;;;;4510570;28;20033;-63
2022/04/08 10:10:06;;;;;;;3.17;1.67;;;;;;;;;;4511931;28;20702;-63
2022/04/08 10:12:46;;;;;;;3.10;1.42;;;;;;;;;;4491699;28;20038;-63
2022/04/08 10:15:31;;;;;;;3.53;1.75;;;;;;;;;;4501465;28;20050;-63
2022/04/08 10:17:45;;;;;;;3.05;1.55;;;;;;;;;;4512691;28;20034;-63
2022/04/08 10:20:21;;;;;;;4.63;1.27;;;;;;;;;;4510967;28;20044;-62
2022/04/08 10:22:40;;;;;;;2.50;1.20;;;;;;;;;;4481583;28;20089;-62
2022/04/08 10:24:53;;;;;;;2.65;1.20;;;;;;;;;;4511593;28;20034;-63
2022/04/08 10:27:09;;;;;;;2.28;0.90;;;;;;;;;;4510026;28;20030;-63
2022/04/08 10:29:19;;;;;;;2.13;1.23;;;;;;;;;;4511629;28;20521;-63
2022/04/08 10:31:30;;;;;;;2.13;1.23;;;;;;;;;;4489585;28;20045;-63
2022/04/08 10:33:52;;;;;;;3.67;1.27;;;;;;;;;;4511271;28;20049;-63
2022/04/08 10:36:04;;;;;;;2.63;1.25;;;;;;;;;;4510025;28;20656;-63
2022/04/08 10:38:14;;;;;;;;;;;;;;;;;;4510632;28;20034;-63
2022/04/08 10:40:35;;;;;;;3.25;1.67;;;;;;;;;;4510476;28;19913;-64
2022/04/08 10:43:14;;;;;;;4.05;2.33;;;;;;;;;;4509841;28;20615;-63
2022/04/08 10:45:24;;;;;;;4.43;2.28;;;;;;;;;;4510082;28;20037;-64
2022/04/08 10:47:56;;;;;;;2.80;1.50;;;;;;;;;;4492098;28;20026;-64
2022/04/08 10:50:07;;;;;;;3.67;1.65;;;;;;;;;;4501256;28;20145;-64
2022/04/08 10:52:21;;;;;;;2.30;1.20;;;;;;;;;;4510514;28;20040;-63
2022/04/08 10:54:35;;;;;;;3.50;1.42;;;;;;;;;;4489728;28;20089;-63
2022/04/08 10:56:58;;;;;;;2.72;1.35;;;;;;;;;;4490750;28;20053;-63
2022/04/08 10:59:09;;;;;;;2.13;1.25;;;;;;;;;;4510354;28;20034;-64
2022/04/08 11:01:24;;;;;;;1.90;1.20;;;;;;;;;;4510307;28;20038;-63
2022/04/08 11:03:35;;;;;;;2.58;1.42;;;;;;;;;;4508876;28;20797;-63
2022/04/08 11:05:46;;;;;;;2.70;1.43;;;;;;;;;;4511183;28;20042;-64
2022/04/08 11:07:58;;;;;;;;;;;;;;;;;;4508993;28;37493;-62
2022/04/08 11:10:13;;;;;;;3.10;1.42;;;;;;;;;;4507799;28;20790;-62
2022/04/08 11:12:25;;;;;;;3.13;1.30;;;;;;;;;;4479410;28;20908;-62
2022/04/08 11:14:38;;;;;;;2.28;1.30;;;;;;;;;;4508766;28;20615;-61
2022/04/08 11:16:50;;;;;;;2.55;1.27;;;;;;;;;;4509962;28;20033;-62
2022/04/08 11:19:03;;;;;;;2.58;1.38;;;;;;;;;;4491560;28;20061;-62
2022/04/08 11:21:19;;;;;;;2.63;1.10;;;;;;;;;;4507995;28;20044;-62
2022/04/08 11:23:32;;;;;;;2.38;1.23;;;;;;;;;;4509981;28;21307;-62
2022/04/08 11:25:43;;;;;;;3.08;1.10;;;;;;;;;;4495205;28;20609;-62
2022/04/08 11:28:04;;;;;;;1.67;1.00;;;;;;;;;;4510056;28;22101;-62
2022/04/08 11:30:15;;;;;;;2.17;1.10;;;;;;;;;;4491309;28;20850;-62
2022/04/08 11:32:32;;;;;;;3.13;1.00;;;;;;;;;;4509357;28;20037;-62
2022/04/08 11:34:43;;;;;;;2.50;1.17;;;;;;;;;;4507486;28;20034;-62
2022/04/08 11:36:57;;;;;;;2.70;1.30;;;;;;;;;;4508410;28;20033;-62
2022/04/08 11:39:08;;;;;;;3.05;1.50;;;;;;;;;;4491640;28;20670;-62
2022/04/08 11:41:23;;;;;;;2.40;1.10;;;;;;;;;;4507559;28;20044;-62
2022/04/08 11:43:34;;;;;;;2.15;1.00;;;;;;;;;;4508278;28;20104;-62
2022/04/08 11:45:47;;;;;;;2.35;1.25;;;;;;;;;;4490404;28;20038;-62
2022/04/08 11:47:58;;;;;;;2.20;1.17;;;;;;;;;;4509562;28;20065;-62
2022/04/08 11:50:09;;;;;;;2.13;1.30;;;;;;;;;;4509872;28;20124;-63
2022/04/08 11:52:24;;;;;;;2.60;1.33;;;;;;;;;;4490593;28;20040;-63
2022/04/08 11:54:38;;;;;;;2.80;1.25;;;;;;;;;;4489413;28;20034;-62
2022/04/08 11:56:49;;;;;;;2.53;1.27;;;;;;;;;;4492709;28;21330;-63
2022/04/08 11:59:11;;;;;;;2.88;1.20;;;;;;;;;;4492546;28;21103;-62
2022/04/08 12:01:22;;;;;;;2.35;1.20;;;;;;;;;;4511131;28;20125;-62
2022/04/08 12:03:33;;;;;;;3.25;1.30;;;;;;;;;;4514487;28;20030;-62
2022/04/08 12:05:48;;;;;;;1.20;1.00;;;;;;;;;;4493876;28;20657;-63
2022/04/08 12:08:02;;;;;;;1.60;1.00;;;;;;;;;;4493163;28;20077;-63
2022/04/08 12:10:12;;;;;;;2.22;1.02;;;;;;;;;;4510175;28;20049;-63
2022/04/08 12:12:28;;;;;;;2.87;1.20;;;;;;;;;;4493412;28;20074;-62
2022/04/08 12:14:42;;;;;;;3.22;1.10;;;;;;;;;;4502030;28;20249;-62
2022/04/08 12:17:01;;;;;;;1.27;0.82;;;;;;;;;;4512453;28;20034;-62
2022/04/08 12:19:12;;;;;;;2.08;1.20;;;;;;;;;;4493833;28;20118;-63
2022/04/08 12:21:27;;;;;;;2.05;0.95;;;;;;;;;;4511314;28;20439;-63
2022/04/08 12:23:40;;;;;;;2.45;1.00;;;;;;;;;;4512061;28;20077;-62
2022/04/08 12:25:52;;;;;;;1.85;0.90;;;;;;;;;;4510313;28;20149;-63
2022/04/08 12:28:09;;;;;;;1.58;0.90;;;;;;;;;;4495548;28;20070;-62
2022/04/08 12:30:25;;;;;;;1.67;0.93;;;;;;;;;;4502111;28;20046;-62
2022/04/08 12:32:39;;;;;;;1.80;1.10;;;;;;;;;;4510688;28;20034;-63
2022/04/08 12:34:50;;;;;;;1.40;0.95;;;;;;;;;;4492335;28;20157;-63
2022/04/08 12:37:00;;;;;;;2.55;1.10;;;;;;;;;;4510644;28;20627;-64
2022/04/08 12:39:11;;;;;;;2.07;0.90;;;;;;;;;;4510215;28;38100;-64
2022/04/08 12:41:21;;;;;;;2.27;1.10;;;;;;;;;;4512034;28;20029;-64
2022/04/08 12:43:32;;;;;;;1.67;1.07;;;;;;;;;;4512512;28;21171;-64
2022/04/08 12:45:43;;;;;;;1.10;0.83;;;;;;;;;;4511886;28;20037;-64
2022/04/08 12:47:53;;;;;;;2.77;1.00;;;;;;;;;;4511781;28;20317;-64
2022/04/08 12:50:07;;;;;;;1.87;1.00;;;;;;;;;;4492134;28;20053;-64
2022/04/08 12:52:17;;;;;;;1.38;0.80;;;;;;;;;;4511906;28;20685;-64
2022/04/08 12:54:28;;;;;;;2.73;1.43;;;;;;;;;;4483295;28;20113;-64
2022/04/08 12:56:39;;;;;;;2.17;1.60;;;;;;;;;;4500384;28;20058;-64
2022/04/08 12:58:49;;;;;;;2.25;1.10;;;;;;;;;;4510311;28;20962;-64
2022/04/08 13:01:00;;;;;;;1.80;1.20;;;;;;;;;;4511591;28;20037;-64
2022/04/08 13:03:11;;;;;;;3.03;1.70;;;;;;;;;;4512254;28;20047;-64
2022/04/08 13:05:21;;;;;;;2.13;1.25;;;;;;;;;;4512553;28;20097;-64
2022/04/08 13:07:32;;;;;;;3.10;1.20;;;;;;;;;;4499155;28;20878;-64
2022/04/08 13:09:42;;;;;;;1.87;0.90;;;;;;;;;;4510553;28;20275;-64
2022/04/08 13:11:53;;;;;;;1.70;1.10;;;;;;;;;;4511440;28;20498;-65
2022/04/08 13:14:03;;;;;;;2.00;1.20;;;;;;;;;;4511010;28;20048;-64